createdAt,value
2023-03-03T00:00:54.490Z,32.60
2023-03-03T00:10:56.776Z,31.03
2023-03-03T00:21:01.446Z,29.20
2023-03-03T00:31:25.155Z,30.67
2023-03-03T00:41:28.073Z,32.70
2023-03-03T00:51:31.960Z,29.43
2023-03-03T01:01:34.145Z,31.33
2023-03-03T01:11:36.673Z,31.53
2023-03-03T01:21:39.987Z,32.53
2023-03-03T01:31:42.104Z,28.70
2023-03-03T01:41:44.201Z,32.47
2023-03-03T01:51:53.090Z,29.00
2023-03-03T02:01:55.869Z,29.50
2023-03-03T02:12:01.589Z,26.87
2023-03-03T02:22:03.823Z,28.57
2023-03-03T02:32:06.264Z,27.93
2023-03-03T02:42:12.361Z,29.20
2023-03-03T02:52:23.226Z,28.20
2023-03-03T03:02:27.193Z,31.87
2023-03-03T03:12:31.405Z,38.43
2023-03-03T03:22:35.607Z,38.67
2023-03-03T03:32:38.956Z,48.50
2023-03-03T03:42:42.344Z,49.50
2023-03-03T03:52:44.601Z,40.60
2023-03-03T04:02:47.991Z,37.77
2023-03-03T04:12:51.412Z,51.67
2023-03-03T04:22:53.777Z,57.47
2023-03-03T04:32:55.976Z,49.30
2023-03-03T04:43:01.141Z,45.17
2023-03-03T04:53:03.839Z,32.40
2023-03-03T05:03:07.204Z,32.60
2023-03-03T05:13:09.516Z,30.10
2023-03-03T05:23:11.606Z,30.27
2023-03-03T05:33:14.989Z,29.73
2023-03-03T05:43:17.566Z,27.10
2023-03-03T05:53:19.701Z,29.20
2023-03-03T06:03:22.148Z,28.17
2023-03-03T06:13:24.292Z,32.03
2023-03-03T14:17:06.062Z,46.50
2023-03-03T14:27:23.842Z,43.33
2023-03-03T14:37:26.922Z,42.53
2023-03-03T14:47:30.946Z,39.10
2023-03-03T14:57:46.741Z,36.97
2023-03-03T15:07:53.309Z,35.83
2023-03-03T15:18:02.845Z,38.57
2023-03-03T15:28:26.897Z,28.30
2023-03-03T15:38:43.169Z,29.37
2023-03-03T15:49:23.280Z,31.93
2023-03-03T15:59:26.370Z,25.50
2023-03-03T16:09:58.214Z,22.57
2023-03-03T16:20:07.295Z,20.33
2023-03-03T16:30:36.160Z,18.50
2023-03-03T16:40:55.850Z,23.50
2023-03-03T16:51:13.328Z,18.17
2023-03-03T17:01:28.089Z,19.70
2023-03-03T17:11:30.468Z,17.43
2023-03-03T17:21:44.289Z,21.20
2023-03-03T17:32:24.882Z,25.63
2023-03-03T17:42:45.561Z,27.57
2023-03-03T17:53:07.335Z,30.00
2023-03-03T18:03:14.802Z,35.37
2023-03-03T18:13:36.896Z,44.03
2023-03-03T18:23:46.073Z,31.83
2023-03-03T18:34:20.596Z,34.27
2023-03-03T18:44:30.291Z,44.70
2023-03-03T18:54:34.521Z,42.47
2023-03-03T19:04:37.496Z,53.03
2023-03-03T19:14:40.872Z,85.10
2023-03-03T19:25:02.750Z,56.50
2023-03-03T19:35:33.075Z,35.80
2023-03-03T19:45:59.180Z,33.40
2023-03-03T19:56:07.209Z,38.80
2023-03-03T20:06:24.518Z,42.53
2023-03-03T20:16:41.527Z,71.53
2023-03-03T20:27:01.293Z,46.83
2023-03-03T20:37:10.394Z,40.97
2023-03-03T20:47:31.562Z,37.87
2023-03-03T20:57:46.998Z,39.70
2023-03-03T21:08:03.271Z,37.07
2023-03-03T21:18:27.328Z,41.93
2023-03-03T21:28:34.242Z,37.20
2023-03-03T21:38:39.183Z,30.03
2023-03-03T21:48:42.498Z,29.77
2023-03-03T21:58:44.710Z,32.73
2023-03-03T22:08:47.038Z,27.07
2023-03-03T22:18:49.174Z,27.20
2023-03-03T22:28:51.236Z,25.00
2023-03-03T22:38:53.577Z,20.73
2023-03-03T22:48:55.702Z,20.60
2023-03-03T22:58:57.794Z,15.07
2023-03-03T23:08:59.863Z,14.63
2023-03-03T23:19:02.082Z,8.40
2023-03-03T23:29:04.903Z,12.23
2023-03-03T23:39:07.119Z,11.07
2023-03-03T23:49:09.337Z,14.83
2023-03-03T23:59:11.586Z,11.83
